Time;durP1;ratioP1;P1;durP2;ratioP2;P2;SDS_P1;SDS_P2;PMS_P1;PMS_P2;Temp;Humidity;BMP_temperature;BMP_pressure;BME280_temperature;BME280_humidity;BME280_pressure;Samples;Min_cycle;Max_cycle;Signal;HPM_P1;HPM_P2
2022/06/07 00:01:25;;;;;;;12.30;10.80;;;;;;;17.84;100.00;98834.77;105295;1268;75270;-77
2022/06/07 00:03:51;;;;;;;12.20;11.10;;;;;;;17.80;100.00;98835.00;105305;1268;62080;-77
2022/06/07 00:06:18;;;;;;;12.00;10.80;;;;;;;17.76;100.00;98833.38;105264;1268;62161;-78
2022/06/07 00:08:44;;;;;;;12.90;11.80;;;;;;;17.72;100.00;98830.38;105278;1265;62170;-77
2022/06/07 00:11:11;;;;;;;13.90;12.60;;;;;;;17.69;100.00;98832.80;105307;1268;62392;-77
2022/06/07 00:13:39;;;;;;;13.90;12.30;;;;;;;17.66;100.00;98827.22;105275;1268;76521;-77
2022/06/07 00:16:05;;;;;;;14.90;13.50;;;;;;;17.64;100.00;98823.81;105112;1268;69167;-77
2022/06/07 00:18:32;;;;;;;13.40;12.20;;;;;;;17.62;100.00;98817.02;105288;1268;72198;-77
2022/06/07 00:21:01;;;;;;;14.20;12.70;;;;;;;17.57;100.00;98817.51;105315;1268;62180;-77
2022/06/07 00:23:28;;;;;;;14.20;12.70;;;;;;;17.51;100.00;98816.40;105299;1268;62614;-78
2022/06/07 00:25:55;;;;;;;14.20;12.70;;;;;;;17.49;100.00;98816.88;105185;1268;76105;-79
2022/06/07 00:28:22;;;;;;;13.00;11.70;;;;;;;17.46;100.00;98817.89;105284;1268;68559;-78
2022/06/07 00:30:50;;;;;;;14.00;11.60;;;;;;;17.43;100.00;98817.28;105358;1268;73298;-77
2022/06/07 00:33:17;;;;;;;12.50;11.30;;;;;;;17.38;100.00;98816.34;105315;1268;62187;-77
2022/06/07 00:35:45;;;;;;;14.20;11.70;;;;;;;17.29;100.00;98811.20;105382;1268;62052;-76
2022/06/07 00:38:11;;;;;;;12.60;11.40;;;;;;;17.23;100.00;98811.09;105328;1266;73872;-78
2022/06/07 00:40:39;;;;;;;12.20;11.10;;;;;;;17.21;100.00;98808.63;105878;1268;62053;-77
2022/06/07 00:43:06;;;;;;;12.70;11.60;;;;;;;17.21;100.00;98809.54;105495;1268;73256;-79
2022/06/07 00:45:34;;;;;;;12.90;11.60;;;;;;;17.20;100.00;98806.16;105047;1268;336339;-79
2022/06/07 00:48:01;;;;;;;12.90;11.60;;;;;;;17.19;100.00;98805.36;105311;1268;62129;-78
2022/06/07 00:50:43;;;;;;;12.00;10.90;;;;;;;17.18;100.00;98807.42;105409;1268;76068;-79
2022/06/07 00:53:30;;;;;;;13.30;11.90;;;;;;;17.18;100.00;98806.27;105257;1268;69146;-79
2022/06/07 00:55:58;;;;;;;13.00;11.80;;;;;;;17.17;100.00;98803.45;105374;1268;73287;-76
2022/06/07 00:58:26;;;;;;;14.20;12.60;;;;;;;17.15;100.00;98803.64;105301;1268;62250;-79
2022/06/07 01:00:53;;;;;;;13.50;12.30;;;;;;;17.13;100.00;98806.50;105309;1268;61974;-80
2022/06/07 01:03:21;;;;;;;14.40;13.00;;;;;;;17.13;100.00;98809.80;105250;1268;76121;-77
2022/06/07 01:05:49;;;;;;;16.80;15.00;;;;;;;17.08;100.00;98805.58;105262;1268;70408;-79
2022/06/07 01:11:01;;;;;;;15.50;14.10;;;;;;;17.01;100.00;98797.30;105284;1268;62113;-77
2022/06/07 01:13:32;;;;;;;16.20;14.70;;;;;;;16.99;100.00;98795.17;105299;1268;62187;-78
2022/06/07 01:16:03;;;;;;;15.20;13.70;;;;;;;16.98;100.00;98796.30;105321;1268;76517;-77
2022/06/07 01:18:31;;;;;;;16.40;14.80;;;;;;;16.96;100.00;98790.55;105315;1268;69471;-78
2022/06/07 01:21:20;;;;;;;15.60;14.00;;;;;;;16.92;100.00;98784.29;105290;1267;73297;-79
2022/06/07 01:23:48;;;;;;;17.50;15.80;;;;;;;16.87;100.00;98781.77;105298;1268;62063;-79
2022/06/07 01:26:15;;;;;;;19.00;15.70;;;;;;;16.81;100.00;98779.61;105292;1268;61979;-79
2022/06/07 01:28:42;;;;;;;15.80;14.10;;;;;;;16.77;100.00;98771.41;105363;1268;76156;-77
2022/06/07 01:31:09;;;;;;;15.50;13.90;;;;;;;16.69;100.00;98771.61;105290;1268;70208;-77
2022/06/07 01:33:37;;;;;;;15.50;14.00;;;;;;;16.62;100.00;98767.59;105291;1268;74248;-78
2022/06/07 01:36:07;;;;;;;16.70;15.00;;;;;;;16.56;100.00;98772.34;105629;1268;62096;-78
2022/06/07 01:38:36;;;;;;;15.80;14.20;;;;;;;16.50;100.00;98769.34;105261;1268;62521;-78
2022/06/07 01:43:50;;;;;;;14.50;13.10;;;;;;;16.38;100.00;98767.38;105293;1268;69068;-79
2022/06/07 01:46:18;;;;;;;14.60;13.10;;;;;;;16.31;100.00;98772.36;105312;1268;73257;-78
2022/06/07 01:48:46;;;;;;;14.80;13.30;;;;;;;16.23;100.00;98770.60;105261;1267;62178;-77
2022/06/07 01:51:13;;;;;;;14.20;12.90;;;;;;;16.18;100.00;98769.81;105364;1268;62087;-77
2022/06/07 01:53:41;;;;;;;14.40;12.90;;;;;;;16.13;100.00;98769.00;105325;1268;75990;-78
2022/06/07 01:56:13;;;;;;;13.90;12.50;;;;;;;16.08;100.00;98770.17;105294;1268;69201;-78
2022/06/07 01:58:44;;;;;;;14.20;12.70;;;;;;;16.03;100.00;98772.50;105276;1268;70501;-79
2022/06/07 02:01:12;;;;;;;13.30;12.00;;;;;;;15.99;100.00;98764.61;105322;1268;62187;-77
2022/06/07 02:03:40;;;;;;;14.70;13.30;;;;;;;15.96;100.00;98768.22;105355;1268;62174;-77
2022/06/07 02:06:11;;;;;;;13.20;12.00;;;;;;;15.93;100.00;98763.69;105357;1268;75851;-78
2022/06/07 02:08:40;;;;;;;14.50;13.00;;;;;;;15.89;100.00;98763.77;105301;1268;69208;-78
2022/06/07 02:11:13;;;;;;;13.40;12.10;;;;;;;15.84;100.00;98761.33;105391;1267;72845;-76
2022/06/07 02:13:41;;;;;;;14.60;13.10;;;;;;;15.77;100.00;98762.69;105495;1268;62195;-77
2022/06/07 02:16:08;;;;;;;15.10;13.60;;;;;;;15.71;100.00;98758.24;105212;1267;62186;-76
2022/06/07 02:18:36;;;;;;;13.50;12.20;;;;;;;15.63;100.00;98756.64;105380;1268;75904;-76
2022/06/07 02:21:03;;;;;;;14.80;13.40;;;;;;;15.58;100.00;98755.09;105281;1268;69155;-76
2022/06/07 02:23:32;;;;;;;14.80;13.30;;;;;;;15.55;100.00;98749.73;105250;1268;73793;-76
2022/06/07 02:26:11;;;;;;;15.60;14.20;;;;;;;15.56;100.00;98752.19;105436;1268;62176;-77
2022/06/07 02:28:40;;;;;;;17.50;15.60;;;;;;;15.56;100.00;98752.95;105274;1268;62081;-80
2022/06/07 02:31:09;;;;;;;18.00;16.20;;;;;;;15.58;100.00;98752.40;105364;1268;76266;-80
2022/06/07 02:33:39;;;;;;;18.10;16.30;;;;;;;15.60;100.00;98749.83;105055;1269;70238;-79
2022/06/07 02:36:08;;;;;;;15.80;14.30;;;;;;;15.62;100.00;98747.92;105527;1266;74543;-79
2022/06/07 02:38:35;;;;;;;18.70;16.90;;;;;;;15.60;100.00;98748.45;105227;1268;62241;-81
2022/06/07 02:41:05;;;;;;;17.40;15.60;;;;;;;15.60;100.00;98750.80;105330;1268;62079;-81
2022/06/07 02:43:32;;;;;;;17.90;15.40;;;;;;;15.58;100.00;98753.27;105208;1268;75220;-79
2022/06/07 02:45:58;;;;;;;18.50;16.60;;;;;;;15.57;100.00;98746.55;105177;1268;62003;-78
2022/06/07 02:48:25;;;;;;;16.00;14.60;;;;;;;15.57;100.00;98744.58;105339;1268;62207;-80
2022/06/07 02:50:54;;;;;;;17.40;15.70;;;;;;;15.58;100.00;98741.98;105261;1268;62113;-78
2022/06/07 02:53:21;;;;;;;18.20;16.30;;;;;;;15.61;100.00;98742.11;105279;1268;62429;-77
2022/06/07 02:55:48;;;;;;;15.10;13.50;;;;;;;15.62;100.00;98746.11;105291;1268;75817;-77
2022/06/07 02:58:15;;;;;;;16.80;15.20;;;;;;;15.63;100.00;98745.86;105298;1268;69253;-77
2022/06/07 03:00:41;;;;;;;16.00;14.30;;;;;;;15.65;100.00;98746.96;105034;1268;73280;-77
2022/06/07 03:03:09;;;;;;;16.00;14.60;;;;;;;15.69;100.00;98751.27;105322;1268;62011;-76
2022/06/07 03:05:35;;;;;;;18.50;16.70;;;;;;;15.74;100.00;98750.81;105296;1268;62144;-76
2022/06/07 03:08:02;;;;;;;19.10;17.30;;;;;;;15.79;100.00;98752.08;105269;1267;75992;-76
2022/06/07 03:10:29;;;;;;;30.40;27.30;;;;;;;15.85;100.00;98754.09;105079;1268;70413;-76
2022/06/07 03:12:55;;;;;;;36.30;32.60;;;;;;;15.93;100.00;98753.46;105283;1268;62169;-75
2022/06/07 03:15:22;;;;;;;31.00;27.90;;;;;;;16.05;100.00;98752.34;105263;1268;62167;-77
2022/06/07 03:17:49;;;;;;;26.10;23.60;;;;;;;16.15;100.00;98755.02;105240;1268;62100;-77
2022/06/07 03:20:16;;;;;;;23.60;20.40;;;;;;;16.20;100.00;98757.27;105050;1268;75978;-77
2022/06/07 03:22:42;;;;;;;21.10;18.90;;;;;;;16.25;100.00;98758.02;105265;1268;61967;-75
2022/06/07 03:25:11;;;;;;;20.50;18.40;;;;;;;16.42;100.00;98755.92;105056;1268;73309;-76
2022/06/07 03:27:39;;;;;;;18.90;16.90;;;;;;;16.99;100.00;98755.30;105342;1268;62175;-76
2022/06/07 03:30:08;;;;;;;19.80;17.10;;;;;;;17.74;100.00;98753.59;105243;1268;62061;-75
2022/06/07 03:32:36;;;;;;;19.80;15.40;;;;;;;18.56;100.00;98751.90;105310;1268;76459;-78
2022/06/07 03:35:04;;;;;;;17.30;15.70;;;;;;;19.08;100.00;98750.50;105096;1268;69618;-77
2022/06/07 03:37:30;;;;;;;15.70;14.20;;;;;;;19.64;100.00;98754.71;105256;1268;74284;-76
2022/06/07 03:39:57;;;;;;;16.00;14.50;;;;;;;20.40;100.00;98748.16;105254;1268;62091;-77
2022/06/07 03:42:23;;;;;;;17.30;15.50;;;;;;;21.03;100.00;98747.98;105217;1268;62107;-78
2022/06/07 03:44:50;;;;;;;17.50;15.00;;;;;;;21.65;100.00;98747.55;105264;1268;62178;-78
2022/06/07 03:47:18;;;;;;;18.90;16.00;;;;;;;22.13;100.00;98742.34;105262;1268;62172;-77
2022/06/07 03:49:46;;;;;;;16.80;15.20;;;;;;;22.64;100.00;98735.01;105285;1268;73100;-78
2022/06/07 03:52:13;;;;;;;15.90;14.30;;;;;;;22.90;100.00;98736.52;105507;1268;62392;-78
2022/06/07 03:54:40;;;;;;;15.60;13.90;;;;;;;22.73;100.00;98736.65;105241;1268;62068;-76
2022/06/07 03:57:08;;;;;;;15.80;13.20;;;;;;;22.49;100.00;98740.33;105317;1268;77187;-77
2022/06/07 03:59:36;;;;;;;17.80;16.00;;;;;;;22.16;100.00;98742.17;105278;1268;69426;-76
2022/06/07 04:02:04;;;;;;;16.90;15.10;;;;;;;22.21;100.00;98741.77;105278;1268;74247;-75
2022/06/07 04:04:31;;;;;;;15.30;13.80;;;;;;;22.59;100.00;98736.39;105397;1268;62122;-77
2022/06/07 04:09:42;;;;;;;17.00;15.50;;;;;;;23.50;100.00;98735.31;105275;1268;75135;-77
2022/06/07 04:12:11;;;;;;;17.10;15.60;;;;;;;24.02;100.00;98730.85;105046;1268;62077;-75
2022/06/07 04:14:40;;;;;;;16.20;14.70;;;;;;;24.69;100.00;98725.31;105432;1268;73450;-75
2022/06/07 04:17:07;;;;;;;16.10;14.50;;;;;;;25.38;100.00;98721.27;105275;1267;62183;-76
2022/06/07 04:19:35;;;;;;;16.10;14.40;;;;;;;25.85;100.00;98720.11;105436;1268;62380;-77
2022/06/07 04:22:03;;;;;;;14.80;13.50;;;;;;;26.17;100.00;98718.30;105311;1268;75969;-77
2022/06/07 04:24:31;;;;;;;13.30;12.10;;;;;;;26.49;100.00;98714.60;105263;1268;69300;-76
2022/06/07 04:26:58;;;;;;;12.80;11.60;;;;;;;26.76;100.00;98711.17;105407;1268;73352;-77
2022/06/07 04:29:25;;;;;;;12.60;11.40;;;;;;;26.94;100.00;98710.94;105288;1268;62225;-77
2022/06/07 04:31:52;;;;;;;10.20;9.30;;;;;;;26.95;100.00;98713.38;105266;1268;62155;-77
2022/06/07 04:34:19;;;;;;;9.50;8.60;;;;;;;27.02;100.00;98716.23;105274;1268;75731;-76
2022/06/07 04:36:46;;;;;;;9.50;8.70;;;;;;;27.24;100.00;98714.43;105238;1268;70203;-75
2022/06/07 04:39:12;;;;;;;9.30;8.20;;;;;;;27.42;100.00;98716.84;105269;1268;73170;-76
2022/06/07 04:41:39;;;;;;;7.90;7.30;;;;;;;27.48;100.00;98714.35;105229;1268;62197;-77
2022/06/07 04:44:06;;;;;;;8.40;7.70;;;;;;;27.63;100.00;98714.91;105029;1268;62261;-76
2022/06/07 04:46:33;;;;;;;7.30;6.60;;;;;;;27.96;100.00;98711.77;105298;1268;76185;-75
2022/06/07 04:48:59;;;;;;;7.10;6.40;;;;;;;28.44;99.02;98713.42;105272;1268;69035;-75
2022/06/07 04:51:29;;;;;;;8.00;7.20;;;;;;;28.58;97.93;98713.92;105234;1268;74336;-77
2022/06/07 04:53:58;;;;;;;7.80;7.30;;;;;;;28.28;96.59;98711.46;105265;1267;62157;-76
2022/06/07 04:56:27;;;;;;;8.00;7.20;;;;;;;27.88;97.03;98719.15;105367;1268;62135;-77
2022/06/07 04:58:56;;;;;;;9.30;7.80;;;;;;;27.75;96.98;98721.16;105306;1267;77233;-77
2022/06/07 05:01:26;;;;;;;9.20;7.80;;;;;;;27.95;96.26;98720.75;105334;1268;69482;-76
2022/06/07 05:03:54;;;;;;;7.80;7.20;;;;;;;28.15;95.83;98720.58;105485;1268;72121;-77
2022/06/07 05:06:28;;;;;;;7.50;6.90;;;;;;;28.07;95.61;98717.21;105191;1269;62149;-75
2022/06/07 05:08:58;;;;;;;7.80;7.00;;;;;;;27.93;95.47;98720.97;105299;1268;62405;-77
2022/06/07 05:11:26;;;;;;;7.70;7.10;;;;;;;27.94;95.03;98727.04;105165;1268;76449;-76
2022/06/07 05:13:58;;;;;;;7.90;6.70;;;;;;;28.13;94.35;98727.27;105141;1268;69437;-76
2022/06/07 05:16:25;;;;;;;6.80;6.20;;;;;;;28.14;93.76;98729.59;105322;1268;73133;-77
2022/06/07 05:18:54;;;;;;;7.60;6.90;;;;;;;28.12;93.41;98729.05;105245;1268;62175;-77
2022/06/07 05:21:23;;;;;;;7.60;6.80;;;;;;;28.45;91.82;98726.65;105333;1268;62135;-77
2022/06/07 05:23:50;;;;;;;7.20;6.60;;;;;;;28.74;90.08;98727.31;105312;1268;74937;-78
2022/06/07 05:26:41;;;;;;;7.30;6.70;;;;;;;29.10;89.46;98729.17;105151;1268;70740;-78
2022/06/07 05:29:21;;;;;;;7.10;6.50;;;;;;;29.28;88.90;98728.02;105254;1267;73294;-76
2022/06/07 05:31:49;;;;;;;7.40;6.70;;;;;;;29.63;87.29;98728.42;105242;1268;62161;-77
2022/06/07 05:34:16;;;;;;;7.10;6.50;;;;;;;29.99;86.46;98734.05;105254;1268;63670;-78
2022/06/07 05:36:43;;;;;;;6.90;6.30;;;;;;;30.31;85.44;98738.47;105273;1268;75895;-78
2022/06/07 05:39:25;;;;;;;6.50;6.00;;;;;;;30.55;84.60;98736.46;105262;1268;69492;-78
2022/06/07 05:41:53;;;;;;;7.70;6.80;;;;;;;30.70;83.84;98737.09;105279;1268;74358;-78
2022/06/07 05:44:22;;;;;;;6.70;6.10;;;;;;;30.78;83.64;98739.77;105483;1267;62120;-78
2022/06/07 05:46:49;;;;;;;6.40;5.80;;;;;;;30.94;82.55;98740.46;105285;1268;61966;-78
2022/06/07 05:49:16;;;;;;;6.70;6.00;;;;;;;30.96;82.16;98739.79;105345;1268;74085;-78
2022/06/07 05:51:43;;;;;;;6.10;5.60;;;;;;;31.15;81.16;98736.70;105357;1267;70434;-77
2022/06/07 05:54:11;;;;;;;5.90;5.30;;;;;;;31.34;78.80;98735.13;105269;1268;74292;-77
2022/06/07 05:56:38;;;;;;;6.00;5.10;;;;;;;31.50;74.44;98737.61;105005;1268;62154;-78
2022/06/07 05:59:05;;;;;;;5.70;5.30;;;;;;;31.30;67.95;98732.51;105482;1268;62151;-78
2022/06/07 06:01:34;;;;;;;8.40;6.80;;;;;;;31.35;67.28;98730.52;105243;1267;75925;-77
2022/06/07 06:04:03;;;;;;;7.40;6.80;;;;;;;31.64;65.82;98726.20;105490;1267;68176;-82
2022/06/07 06:06:30;;;;;;;6.60;6.10;;;;;;;31.82;64.02;98721.90;105063;1268;72821;-82
2022/06/07 06:11:42;;;;;;;6.50;4.90;;;;;;;31.67;58.51;98717.05;105244;1268;61994;-73
2022/06/07 06:14:10;;;;;;;5.80;4.90;;;;;;;31.73;57.86;98711.59;105327;1267;76001;-73
2022/06/07 06:16:37;;;;;;;6.50;4.40;;;;;;;31.77;57.29;98710.52;105378;1268;70518;-74
2022/06/07 06:19:04;;;;;;;4.40;4.00;;;;;;;31.74;55.11;98714.42;105310;1268;75167;-74
2022/06/07 06:21:38;;;;;;;6.00;5.20;;;;;;;31.73;54.56;98706.59;105463;1268;62113;-75
2022/06/07 06:24:05;;;;;;;7.50;5.20;;;;;;;31.81;53.53;98705.34;105378;1267;62053;-74
2022/06/07 06:26:32;;;;;;;5.00;4.50;;;;;;;32.01;53.53;98706.62;105305;1268;77039;-74
2022/06/07 06:28:59;;;;;;;3.60;3.20;;;;;;;32.19;52.38;98701.17;105284;1268;70214;-74
2022/06/07 06:31:26;;;;;;;3.20;3.00;;;;;;;32.18;50.01;98699.19;105319;1268;74296;-75
2022/06/07 06:33:54;;;;;;;2.70;2.50;;;;;;;32.12;50.07;98703.95;105282;1268;62155;-76
2022/06/07 06:36:25;;;;;;;2.30;2.20;;;;;;;32.19;49.16;98701.90;105171;1268;62136;-76
2022/06/07 06:38:54;;;;;;;3.30;3.00;;;;;;;32.11;47.84;98703.81;105348;1268;74821;-75
2022/06/07 06:41:24;;;;;;;3.60;2.80;;;;;;;31.86;48.25;98702.09;105454;1268;68494;-75
2022/06/07 06:43:52;;;;;;;6.40;3.60;;;;;;;31.97;48.58;98702.30;105305;1268;75618;-75
2022/06/07 06:46:23;;;;;;;3.90;2.90;;;;;;;32.14;48.99;98701.37;105314;1268;62120;-73
2022/06/07 06:48:50;;;;;;;2.60;2.40;;;;;;;32.18;48.47;98703.16;105375;1267;62076;-76
2022/06/07 06:51:20;;;;;;;2.80;2.60;;;;;;;31.77;48.10;98702.08;105326;1267;77201;-80
2022/06/07 06:53:47;;;;;;;2.40;2.30;;;;;;;31.28;48.30;98704.53;105324;1268;69143;-79
2022/06/07 06:56:18;;;;;;;3.10;2.50;;;;;;;30.73;49.16;98700.98;105247;1268;73254;-77
2022/06/07 06:58:45;;;;;;;3.70;3.40;;;;;;;30.35;49.24;98702.37;105271;1268;62438;-80
2022/06/07 07:01:16;;;;;;;3.90;3.60;;;;;;;30.03;49.99;98704.05;105409;1268;61963;-83
2022/06/07 07:03:43;;;;;;;4.30;4.00;;;;;;;29.98;51.03;98705.06;105130;1269;76590;-83
2022/06/07 07:06:12;;;;;;;4.50;4.20;;;;;;;29.93;51.41;98708.68;105365;1268;67297;-81
2022/06/07 07:08:41;;;;;;;4.50;4.10;;;;;;;29.90;51.76;98705.48;105377;1268;71019;-82
2022/06/07 07:11:10;;;;;;;4.10;3.80;;;;;;;29.98;51.82;98705.73;105664;1268;62103;-83
2022/06/07 07:13:37;;;;;;;;;;;;;;;30.06;51.89;98705.27;105436;1268;62034;-82
2022/06/07 07:16:08;;;;;;;4.30;3.90;;;;;;;30.07;51.64;98704.54;105431;1268;73507;-77
2022/06/07 07:18:35;;;;;;;4.90;4.40;;;;;;;29.99;51.53;98703.81;105428;1268;69269;-81
2022/06/07 07:21:07;;;;;;;3.90;3.60;;;;;;;29.83;51.91;98709.14;105513;1268;74962;-82
2022/06/07 07:23:35;;;;;;;4.50;4.10;;;;;;;29.77;52.58;98702.98;105615;1268;62114;-83
2022/06/07 07:26:06;;;;;;;4.70;4.30;;;;;;;29.73;52.53;98696.98;105525;1268;62096;-83
2022/06/07 07:28:33;;;;;;;3.90;3.60;;;;;;;29.67;52.87;98694.08;105745;1267;75058;-81
2022/06/07 07:31:03;;;;;;;4.20;3.80;;;;;;;29.70;52.61;98693.96;105678;1268;69221;-82
2022/06/07 07:33:31;;;;;;;4.30;4.00;;;;;;;29.73;52.20;98691.66;105399;1268;71570;-78
2022/06/07 07:36:05;;;;;;;4.30;3.90;;;;;;;29.72;51.67;98688.41;105333;1268;62106;-79
2022/06/07 07:38:33;;;;;;;3.70;3.40;;;;;;;29.72;52.13;98680.23;105443;1267;62043;-77
2022/06/07 07:40:59;;;;;;;4.00;3.70;;;;;;;29.77;52.34;98680.61;105527;1268;76733;-80
2022/06/07 07:43:26;;;;;;;4.20;3.70;;;;;;;29.89;52.18;98680.42;105337;1268;68767;-86
2022/06/07 07:45:55;;;;;;;3.80;3.50;;;;;;;29.96;51.64;98678.59;105747;1268;72558;-85
2022/06/07 07:48:23;;;;;;;3.70;3.40;;;;;;;29.98;52.05;98677.66;105573;1267;62173;-80
2022/06/07 07:50:50;;;;;;;3.10;2.90;;;;;;;29.98;51.56;98677.71;105639;1268;61995;-78
2022/06/07 07:53:20;;;;;;;3.30;3.10;;;;;;;29.80;51.04;98677.69;105026;1268;74096;-79
2022/06/07 07:55:50;;;;;;;3.30;3.10;;;;;;;29.64;51.35;98679.14;105335;1268;69015;-79
2022/06/07 07:58:18;;;;;;;4.10;3.80;;;;;;;29.76;51.61;98677.25;105624;1268;72860;-77
2022/06/07 08:00:47;;;;;;;3.30;3.00;;;;;;;29.77;51.10;98678.97;105705;1268;62247;-82
2022/06/07 08:03:14;;;;;;;3.10;2.90;;;;;;;29.74;51.16;98678.67;105379;1268;62091;-80
2022/06/07 08:05:41;;;;;;;3.60;3.40;;;;;;;29.72;50.92;98673.13;105587;1268;77559;-81
2022/06/07 08:08:09;;;;;;;3.80;3.10;;;;;;;29.80;50.69;98676.64;105607;1268;67389;-80
2022/06/07 08:10:37;;;;;;;3.90;3.60;;;;;;;29.89;50.06;98677.02;105683;1268;73325;-80
2022/06/07 08:13:07;;;;;;;3.60;3.40;;;;;;;29.85;50.58;98671.87;105568;1268;62092;-82
2022/06/07 08:15:35;;;;;;;3.10;2.90;;;;;;;29.88;50.67;98670.14;105492;1267;61963;-87
2022/06/07 08:18:04;;;;;;;3.10;2.70;;;;;;;29.99;50.35;98667.22;105731;1268;75511;-85
2022/06/07 08:20:37;;;;;;;3.30;2.40;;;;;;;30.06;49.99;98663.93;105331;1268;70424;-84
2022/06/07 08:23:06;;;;;;;3.20;2.90;;;;;;;30.19;49.91;98662.77;105868;1268;72757;-83
2022/06/07 08:25:34;;;;;;;3.10;2.90;;;;;;;30.29;49.65;98658.36;105621;1268;62145;-84
2022/06/07 08:28:02;;;;;;;3.10;2.90;;;;;;;30.16;48.42;98657.25;105312;1268;62057;-80
2022/06/07 08:30:29;;;;;;;3.50;3.20;;;;;;;30.03;49.32;98660.17;105388;1268;75934;-79
2022/06/07 08:32:55;;;;;;;3.40;3.20;;;;;;;30.18;50.11;98655.92;105541;1268;69274;-82
2022/06/07 08:38:07;;;;;;;3.10;2.90;;;;;;;29.78;49.17;98655.21;105583;1268;62084;-83
2022/06/07 08:40:40;;;;;;;3.70;3.40;;;;;;;29.81;49.92;98654.90;105403;1268;62268;-79
2022/06/07 08:43:15;;;;;;;3.30;3.00;;;;;;;29.86;50.46;98657.70;105453;1267;77244;-80
2022/06/07 08:45:44;;;;;;;3.60;3.40;;;;;;;29.87;50.21;98657.48;105388;1268;68807;-79
2022/06/07 08:48:32;;;;;;;3.60;3.30;;;;;;;29.91;50.93;98658.72;105564;1268;71836;-86
2022/06/07 08:51:17;;;;;;;3.40;3.20;;;;;;;29.98;50.00;98657.68;105604;1268;62077;-80
2022/06/07 08:53:50;;;;;;;3.90;3.60;;;;;;;29.81;49.76;98652.54;105593;1267;62030;-74
2022/06/07 08:56:24;;;;;;;3.30;3.10;;;;;;;29.73;50.28;98650.80;105282;1268;74879;-75
2022/06/07 08:58:53;;;;;;;3.80;3.50;;;;;;;29.92;49.42;98649.69;105289;1268;69327;-76
2022/06/07 09:01:33;;;;;;;3.00;2.80;;;;;;;29.99;48.93;98649.58;105485;1268;73408;-75
2022/06/07 09:04:09;;;;;;;3.20;3.00;;;;;;;30.08;49.37;98651.40;105306;1267;62101;-76
2022/06/07 09:06:40;;;;;;;3.00;2.80;;;;;;;30.18;49.29;98648.88;105298;1268;62095;-76
2022/06/07 09:09:08;;;;;;;3.60;3.30;;;;;;;30.22;49.50;98646.91;105327;1268;76031;-76
2022/06/07 09:14:49;;;;;;;3.10;2.90;;;;;;;30.61;49.63;98636.59;105076;1274;72933;-85
2022/06/07 09:17:40;;;;;;;4.00;3.40;;;;;;;30.78;48.94;98636.23;105540;1268;62101;-80
2022/06/07 09:20:27;;;;;;;3.50;3.10;;;;;;;30.73;48.34;98636.20;105354;1268;62082;-79
2022/06/07 09:23:15;;;;;;;2.90;2.70;;;;;;;30.70;47.95;98634.27;105567;1268;76004;-79
2022/06/07 09:25:53;;;;;;;3.10;2.90;;;;;;;30.77;47.83;98631.23;105668;1268;68873;-81
2022/06/07 09:28:26;;;;;;;2.80;2.60;;;;;;;30.70;47.69;98627.64;105469;1268;73291;-83
2022/06/07 09:31:06;;;;;;;3.10;2.90;;;;;;;30.52;45.96;98628.20;105416;1268;63912;-81
2022/06/07 09:33:35;;;;;;;2.50;2.40;;;;;;;30.26;46.23;98622.37;105661;1267;62049;-81
2022/06/07 09:36:08;;;;;;;3.60;2.40;;;;;;;30.25;46.51;98619.98;105607;1268;76553;-81
2022/06/07 09:38:56;;;;;;;2.40;2.30;;;;;;;30.26;46.03;98618.31;105318;1268;67187;-79
2022/06/07 09:41:37;;;;;;;2.70;2.40;;;;;;;30.39;45.81;98617.02;105278;1268;71714;-85
2022/06/07 09:45:07;;;;;;;3.20;2.90;;;;;;;30.39;45.39;98613.67;105668;1268;62078;-83
2022/06/07 09:47:34;;;;;;;3.40;3.10;;;;;;;30.25;45.60;98602.52;104869;1276;62154;-84
2022/06/07 09:50:03;;;;;;;4.20;3.80;;;;;;;30.15;46.05;98601.60;104852;1277;76860;-81
2022/06/07 09:52:42;;;;;;;3.70;3.10;;;;;;;30.01;45.74;98600.83;104869;1277;67403;-85
2022/06/07 09:55:32;;;;;;;3.30;3.10;;;;;;;29.71;45.82;98590.70;104617;1277;74794;-77
2022/06/07 09:58:41;;;;;;;3.90;3.60;;;;;;;29.49;46.29;98590.52;104806;1277;62135;-79
2022/06/07 10:01:25;;;;;;;;;;;;;;;29.38;45.99;98587.09;104072;1284;62208;-73
2022/06/07 10:03:55;;;;;;;3.70;3.40;;;;;;;29.31;46.32;98581.57;103949;1284;76263;-73
2022/06/07 10:06:37;;;;;;;9.30;4.50;;;;;;;29.39;46.91;98582.73;103962;1284;70470;-73
2022/06/07 10:09:15;;;;;;;3.50;3.30;;;;;;;29.75;47.32;98581.01;103992;1284;73064;-72
2022/06/07 10:11:58;;;;;;;4.00;3.70;;;;;;;29.83;45.87;98574.69;103952;1284;62146;-72
2022/06/07 10:14:47;;;;;;;3.40;3.20;;;;;;;29.59;45.44;98568.55;104024;1283;62192;-72
2022/06/07 10:17:40;;;;;;;3.80;2.90;;;;;;;29.22;45.34;98567.58;103975;1284;76627;-72
2022/06/07 10:20:12;;;;;;;2.90;2.70;;;;;;;29.28;45.61;98569.08;104648;1276;68673;-72
2022/06/07 10:23:05;;;;;;;3.20;2.90;;;;;;;29.46;45.06;98564.06;104567;1277;74518;-71
2022/06/07 10:25:36;;;;;;;5.00;3.40;;;;;;;29.47;45.01;98558.60;104782;1277;62429;-72
2022/06/07 10:28:23;;;;;;;4.30;4.00;;;;;;;29.59;44.60;98557.20;104509;1277;62194;-72
2022/06/07 10:31:22;;;;;;;3.60;3.30;;;;;;;29.58;44.65;98559.96;104577;1277;75929;-73
2022/06/07 10:34:01;;;;;;;3.70;3.50;;;;;;;29.48;44.73;98551.44;104757;1276;70255;-77
2022/06/07 10:36:30;;;;;;;4.10;3.30;;;;;;;29.28;44.66;98544.60;104354;1277;73118;-79
2022/06/07 10:39:02;;;;;;;3.90;3.20;;;;;;;28.98;44.26;98542.52;105083;1271;62101;-79
2022/06/07 10:42:04;;;;;;;4.40;3.30;;;;;;;28.77;44.43;98543.90;105308;1267;62373;-77
2022/06/07 10:44:37;;;;;;;3.40;3.20;;;;;;;28.95;44.93;98534.33;104621;1276;77122;-79
2022/06/07 10:47:56;;;;;;;3.50;3.20;;;;;;;29.13;44.98;98534.23;104515;1280;69387;-80
2022/06/07 10:50:37;;;;;;;3.90;3.60;;;;;;;29.29;44.08;98529.55;103514;1290;73502;-83
2022/06/07 10:53:16;;;;;;;3.80;3.50;;;;;;;29.09;44.12;98532.41;103657;1290;62674;-75
2022/06/07 10:55:59;;;;;;;3.60;3.40;;;;;;;28.78;43.99;98528.65;103590;1288;62206;-76
2022/06/07 10:58:39;;;;;;;3.40;3.20;;;;;;;28.58;43.86;98527.15;103444;1291;76002;-75
2022/06/07 11:01:47;;;;;;;3.30;3.10;;;;;;;28.63;44.30;98522.30;103580;1288;69234;-75
2022/06/07 11:10:17;;;;;;;2.40;2.10;;;;;;;29.35;43.87;98510.19;102760;1297;62114;-77
2022/06/07 11:12:54;;;;;;;2.00;1.90;;;;;;;29.56;43.87;98504.34;102854;1297;76495;-77
2022/06/07 11:15:28;;;;;;;3.00;2.50;;;;;;;29.67;43.32;98497.81;102677;1297;67350;-77
2022/06/07 11:18:13;;;;;;;2.50;2.00;;;;;;;29.66;41.77;98498.73;102710;1297;73862;-77
2022/06/07 11:21:05;;;;;;;2.40;2.10;;;;;;;29.53;41.63;98495.44;103007;1291;62878;-81
2022/06/07 11:23:36;;;;;;;3.70;2.10;;;;;;;29.59;41.52;98492.27;103156;1294;62126;-85
2022/06/07 11:26:14;;;;;;;2.80;2.50;;;;;;;29.58;40.49;98493.23;103162;1294;75298;-76
2022/06/07 11:28:40;;;;;;;2.70;2.20;;;;;;;29.47;39.08;98491.10;104121;1283;70514;-76
2022/06/07 11:31:39;;;;;;;2.40;2.20;;;;;;;29.25;37.33;98493.21;104256;1282;62067;-76
2022/06/07 11:34:21;;;;;;;2.60;2.40;;;;;;;29.11;37.96;98491.20;103915;1283;62354;-76
2022/06/07 11:36:51;;;;;;;3.50;2.30;;;;;;;29.20;38.11;98487.63;104106;1283;62204;-76
2022/06/07 11:39:27;;;;;;;4.50;2.20;;;;;;;29.32;37.71;98485.96;104156;1282;76721;-77
2022/06/07 11:41:57;;;;;;;1.90;1.80;;;;;;;29.42;37.64;98478.63;104344;1279;69470;-77
2022/06/07 11:44:28;;;;;;;;;;;;;;;29.51;37.19;98472.38;104612;1279;74414;-78
2022/06/07 11:47:16;;;;;;;2.30;2.10;;;;;;;29.54;37.00;98471.56;104636;1276;62318;-76
2022/06/07 11:49:49;;;;;;;1.70;1.60;;;;;;;29.70;37.01;98465.92;104897;1276;62141;-76
2022/06/07 11:52:17;;;;;;;1.90;1.80;;;;;;;29.75;36.13;98461.02;104635;1277;76010;-76
2022/06/07 11:54:43;;;;;;;2.10;2.00;;;;;;;29.76;36.55;98463.96;104657;1277;69577;-77
2022/06/07 11:57:15;;;;;;;2.20;2.10;;;;;;;29.73;36.05;98458.75;104576;1277;62133;-76
2022/06/07 11:59:45;;;;;;;2.80;2.30;;;;;;;29.78;36.66;98455.89;104603;1276;62221;-78